createdAt,value
2018-07-16T00:00:35.754Z,75.82
2018-07-16T00:01:35.705Z,76.11
2018-07-16T00:02:35.684Z,75.24
2018-07-16T00:03:35.616Z,75.44
2018-07-16T00:04:35.569Z,76.01
2018-07-16T00:05:35.524Z,75.82
2018-07-16T00:06:35.478Z,76.01
2018-07-16T00:07:35.460Z,75.92
2018-07-16T00:08:35.389Z,75.44
2018-07-16T00:09:35.340Z,75.44
2018-07-16T00:10:35.294Z,76.31
2018-07-16T00:11:35.247Z,75.92
2018-07-16T00:12:35.230Z,76.21
2018-07-16T00:13:35.157Z,75.82
2018-07-16T00:14:35.112Z,76.01
2018-07-16T00:15:35.063Z,75.63
2018-07-16T00:16:35.016Z,74.96
2018-07-16T00:17:34.996Z,75.34
2018-07-16T00:18:34.922Z,75.54
2018-07-16T00:19:34.881Z,75.44
2018-07-16T00:20:34.836Z,75.92
2018-07-16T00:21:34.788Z,75.34
2018-07-16T00:22:34.765Z,74.76
2018-07-16T00:23:34.702Z,74.57
2018-07-16T00:24:34.653Z,74.48
2018-07-16T00:25:34.603Z,75.24
2018-07-16T00:26:34.561Z,75.15
2018-07-16T00:27:34.537Z,75.05
2018-07-16T00:28:34.465Z,75.05
2018-07-16T00:29:34.419Z,74.76
2018-07-16T00:30:34.386Z,74.67
2018-07-16T00:31:34.327Z,74.57
2018-07-16T00:32:34.304Z,74.09
2018-07-16T00:33:34.235Z,74.67
2018-07-16T00:34:34.193Z,74.29
2018-07-16T00:35:34.146Z,74.29
2018-07-16T00:36:34.098Z,74.48
2018-07-16T00:37:34.073Z,74.48
2018-07-16T00:38:34.004Z,74.29
2018-07-16T00:39:33.966Z,74.48
2018-07-16T00:40:33.913Z,75.92
2018-07-16T00:41:33.867Z,74.48
2018-07-16T00:42:33.847Z,75.34
2018-07-16T00:43:33.775Z,75.73
2018-07-16T00:44:33.728Z,74.96
2018-07-16T00:45:33.684Z,75.44
2018-07-16T00:46:33.640Z,74.96
2018-07-16T00:47:33.618Z,75.92
2018-07-16T00:48:33.545Z,76.11
2018-07-16T00:49:33.496Z,75.54
2018-07-16T00:50:33.457Z,75.44
2018-07-16T00:51:33.405Z,75.69
2018-07-16T00:52:33.394Z,75.40
2018-07-16T00:53:33.319Z,75.79
2018-07-16T00:54:33.271Z,76.50
2018-07-16T00:55:33.224Z,76.17
2018-07-16T00:56:33.216Z,76.26
2018-07-16T00:57:33.181Z,76.46
2018-07-16T00:58:33.100Z,76.26
2018-07-16T00:59:33.041Z,76.07
2018-07-16T01:00:32.995Z,76.17
2018-07-16T01:01:32.949Z,76.84
2018-07-16T01:02:32.929Z,76.56
2018-07-16T01:03:32.864Z,77.04
2018-07-16T01:04:32.806Z,77.04
2018-07-16T01:05:32.761Z,76.94
2018-07-16T01:06:32.719Z,77.04
2018-07-16T01:07:32.697Z,77.61
2018-07-16T01:08:32.628Z,78.09
2018-07-16T01:09:32.584Z,78.09
2018-07-16T01:10:32.533Z,78.28
2018-07-16T01:11:32.489Z,77.90
2018-07-16T01:12:32.476Z,78.00
2018-07-16T01:13:32.395Z,77.81
2018-07-16T01:14:32.352Z,78.28
2018-07-16T01:15:32.300Z,78.48
2018-07-16T01:16:32.257Z,78.28
2018-07-16T01:17:32.209Z,78.83
2018-07-16T01:18:32.185Z,79.05
2018-07-16T01:19:32.116Z,78.28
2018-07-16T01:20:32.071Z,78.58
2018-07-16T01:21:32.026Z,80.21
2018-07-16T01:22:31.986Z,78.92
2018-07-16T01:23:31.959Z,79.25
2018-07-16T01:24:31.889Z,79.02
2018-07-16T01:25:31.842Z,78.77
2018-07-16T01:26:31.794Z,78.77
2018-07-16T01:27:31.746Z,79.35
2018-07-16T01:28:31.728Z,78.48
2018-07-16T01:29:31.669Z,78.77
2018-07-16T01:30:31.612Z,78.86
2018-07-16T01:31:31.563Z,79.63
2018-07-16T01:32:31.515Z,79.92
2018-07-16T01:33:31.498Z,80.02
2018-07-16T01:34:31.428Z,78.86
2018-07-16T01:35:31.384Z,81.27
2018-07-16T01:36:31.330Z,79.63
2018-07-16T01:37:31.289Z,79.53
2018-07-16T01:38:31.280Z,80.65
2018-07-16T01:39:31.194Z,80.30
2018-07-16T01:40:31.153Z,79.63
2018-07-16T01:41:31.102Z,80.21
2018-07-16T01:42:31.057Z,80.40
2018-07-16T01:43:31.034Z,80.07
2018-07-16T01:44:30.999Z,80.27
2018-07-16T01:45:30.917Z,80.17
2018-07-16T01:46:30.874Z,80.65
2018-07-16T01:47:30.824Z,80.94
2018-07-16T01:48:30.794Z,81.23
2018-07-16T01:49:30.735Z,81.61
2018-07-16T01:50:30.688Z,81.90
2018-07-16T01:51:30.635Z,81.90
2018-07-16T01:52:30.594Z,81.52
2018-07-16T01:53:30.572Z,82.29
2018-07-16T01:54:30.512Z,82.09
2018-07-16T01:55:30.473Z,82.38
2018-07-16T01:56:30.408Z,82.67
2018-07-16T01:57:30.362Z,82.67
2018-07-16T01:58:30.338Z,83.44
2018-07-16T01:59:30.274Z,82.38
2018-07-16T02:00:30.226Z,83.53
2018-07-16T02:01:30.172Z,84.17
2018-07-16T02:02:30.138Z,84.74
2018-07-16T02:03:30.104Z,85.89
2018-07-16T02:04:30.036Z,84.26
2018-07-16T02:05:30.007Z,83.97
2018-07-16T02:06:29.946Z,84.26
2018-07-16T02:07:29.894Z,85.51
2018-07-16T02:08:29.876Z,84.64
2018-07-16T02:09:29.805Z,84.64
2018-07-16T02:10:29.766Z,85.51
2018-07-16T02:11:29.713Z,84.84
2018-07-16T02:12:29.680Z,84.74
2018-07-16T02:13:29.653Z,84.84
2018-07-16T02:14:29.572Z,84.45
2018-07-16T02:15:29.534Z,84.84
2018-07-16T02:16:29.481Z,84.55
2018-07-16T02:17:29.432Z,84.64
2018-07-16T02:18:29.414Z,84.84
2018-07-16T02:19:29.347Z,84.36
2018-07-16T02:20:29.298Z,85.03
2018-07-16T02:21:29.250Z,84.94
2018-07-16T02:22:29.209Z,84.84
2018-07-16T02:23:29.186Z,84.55
2018-07-16T02:24:29.106Z,84.94
2018-07-16T02:25:29.064Z,84.74
2018-07-16T02:26:29.018Z,84.74
2018-07-16T02:27:28.968Z,84.64
2018-07-16T02:28:28.948Z,84.94
2018-07-16T02:29:28.878Z,85.22
2018-07-16T02:30:28.831Z,84.94
2018-07-16T02:31:28.782Z,84.64
2018-07-16T02:32:28.745Z,85.03
2018-07-16T02:33:28.714Z,84.74
2018-07-16T02:34:28.647Z,85.13
2018-07-16T02:35:28.594Z,85.71
2018-07-16T02:36:28.562Z,85.99
2018-07-16T02:37:28.503Z,86.18
2018-07-16T02:38:28.484Z,85.89
2018-07-16T02:39:28.414Z,85.89
2018-07-16T02:40:28.367Z,86.09
2018-07-16T02:41:28.319Z,86.18
2018-07-16T02:42:28.277Z,85.71
2018-07-16T02:43:28.261Z,86.09
2018-07-16T02:44:28.178Z,85.99
2018-07-16T02:45:28.135Z,86.38
2018-07-16T02:46:28.090Z,85.89
2018-07-16T02:47:28.038Z,86.47
2018-07-16T02:48:27.991Z,86.38
2018-07-16T02:49:27.976Z,86.57
2018-07-16T02:50:27.904Z,86.57
2018-07-16T02:51:27.850Z,86.57
2018-07-16T02:52:27.808Z,86.38
2018-07-16T02:53:27.763Z,86.38
2018-07-16T02:54:27.744Z,86.76
2018-07-16T02:55:27.671Z,87.92
2018-07-16T02:56:27.764Z,87.34
2018-07-16T02:57:27.577Z,86.66
2018-07-16T02:58:27.530Z,86.76
2018-07-16T02:59:27.503Z,87.53
2018-07-16T03:00:27.434Z,87.34
2018-07-16T03:01:27.384Z,87.53
2018-07-16T03:02:27.340Z,87.53
2018-07-16T03:03:27.296Z,87.34
2018-07-16T03:04:27.273Z,87.82
2018-07-16T03:05:27.206Z,87.53
2018-07-16T03:06:27.153Z,87.62
2018-07-16T03:07:27.111Z,87.62
2018-07-16T03:08:27.061Z,87.82
2018-07-16T03:09:27.043Z,87.72
2018-07-16T03:10:26.967Z,87.82
2018-07-16T03:11:26.922Z,88.10
2018-07-16T03:12:26.881Z,88.78
2018-07-16T03:13:26.835Z,88.97
2018-07-16T03:14:26.822Z,88.39
2018-07-16T03:15:26.734Z,88.39
2018-07-16T03:16:26.690Z,88.39
2018-07-16T03:17:26.647Z,88.20
2018-07-16T03:18:26.591Z,88.39
2018-07-16T03:19:26.569Z,88.20
2018-07-16T03:20:26.507Z,88.97
2018-07-16T03:21:26.455Z,88.68
2018-07-16T03:22:26.412Z,89.22
2018-07-16T03:23:26.359Z,88.64
2018-07-16T03:24:26.341Z,89.98
2018-07-16T03:25:26.277Z,89.79
2018-07-16T03:26:26.227Z,89.93
2018-07-16T03:27:26.176Z,90.08
2018-07-16T03:28:26.133Z,89.89
2018-07-16T03:29:26.101Z,90.08
2018-07-16T03:30:26.036Z,89.02
2018-07-16T03:31:25.990Z,90.94
2018-07-16T03:32:25.946Z,89.12
2018-07-16T03:33:25.894Z,89.98
2018-07-16T03:34:25.880Z,91.42
2018-07-16T03:35:25.804Z,90.17
2018-07-16T03:36:25.755Z,90.31
2018-07-16T03:37:25.717Z,90.03
2018-07-16T03:38:25.661Z,91.28
2018-07-16T03:39:25.640Z,92.43
2018-07-16T03:40:25.563Z,91.95
2018-07-16T03:41:25.522Z,91.95
2018-07-16T03:42:25.472Z,91.37
2018-07-16T03:43:25.428Z,91.47
2018-07-16T03:44:25.427Z,92.33
2018-07-16T03:45:25.343Z,93.68
2018-07-16T03:46:25.289Z,94.40
2018-07-16T03:47:25.240Z,94.11
2018-07-16T03:48:25.193Z,93.92
2018-07-16T03:49:25.185Z,92.86
2018-07-16T03:50:25.101Z,91.61
2018-07-16T03:51:25.051Z,91.90
2018-07-16T03:52:25.008Z,92.10
2018-07-16T03:53:24.965Z,91.42
2018-07-16T03:54:25.014Z,92.10
2018-07-16T03:55:24.869Z,92.19
2018-07-16T03:56:24.820Z,92.57
2018-07-16T03:57:24.781Z,93.34
2018-07-16T03:58:24.732Z,91.23
2018-07-16T03:59:24.719Z,92.00
2018-07-16T04:00:24.661Z,92.00
2018-07-16T04:01:24.590Z,93.15
2018-07-16T04:02:24.551Z,93.25
2018-07-16T04:03:24.493Z,94.01
2018-07-16T04:04:24.475Z,92.48
2018-07-16T04:05:24.401Z,92.00
2018-07-16T04:06:24.357Z,92.67
2018-07-16T04:07:24.313Z,92.67
2018-07-16T04:08:24.265Z,91.90
2018-07-16T04:09:24.250Z,91.90
2018-07-16T04:10:24.173Z,92.29
2018-07-16T04:11:24.118Z,93.05
2018-07-16T04:12:24.075Z,93.25
2018-07-16T04:13:24.033Z,92.86
2018-07-16T04:14:24.028Z,93.25
2018-07-16T04:15:23.936Z,93.25
2018-07-16T04:16:23.892Z,93.19
2018-07-16T04:17:23.846Z,93.05
2018-07-16T04:18:23.802Z,93.25
2018-07-16T04:19:23.746Z,92.38
2018-07-16T04:20:23.726Z,93.34
2018-07-16T04:21:23.660Z,93.82
2018-07-16T04:22:23.618Z,93.96
2018-07-16T04:23:23.566Z,94.64
2018-07-16T04:24:23.517Z,94.54
2018-07-16T04:25:23.497Z,95.31
2018-07-16T04:26:23.439Z,94.73
2018-07-16T04:27:23.382Z,94.83
2018-07-16T04:28:23.339Z,92.91
2018-07-16T04:29:23.281Z,92.05
2018-07-16T04:30:23.276Z,91.66
2018-07-16T04:31:23.189Z,90.89
2018-07-16T04:32:23.142Z,90.75
2018-07-16T04:33:23.096Z,91.22
2018-07-16T04:34:23.054Z,90.17
2018-07-16T04:35:23.040Z,89.11
2018-07-16T04:36:22.958Z,89.30
2018-07-16T04:37:22.919Z,88.73
2018-07-16T04:38:22.869Z,87.90
2018-07-16T04:39:22.825Z,87.90
2018-07-16T04:40:22.806Z,87.13
2018-07-16T04:41:22.728Z,86.65
2018-07-16T04:42:22.690Z,85.98
2018-07-16T04:43:22.638Z,86.36
2018-07-16T04:44:22.654Z,86.41
2018-07-16T04:45:22.569Z,85.16
2018-07-16T04:46:22.497Z,85.25
2018-07-16T04:47:22.453Z,85.35
2018-07-16T04:48:22.408Z,85.44
2018-07-16T04:49:22.358Z,84.29
2018-07-16T04:50:22.342Z,83.72
2018-07-16T04:51:22.271Z,84.48
2018-07-16T04:52:22.229Z,83.23
2018-07-16T04:53:22.177Z,82.46
2018-07-16T04:54:22.138Z,82.37
2018-07-16T04:55:22.113Z,82.31
2018-07-16T04:56:22.042Z,81.88
2018-07-16T04:57:21.996Z,81.88
2018-07-16T04:58:21.955Z,80.77
2018-07-16T04:59:21.900Z,81.63
2018-07-16T05:00:21.885Z,81.63
2018-07-16T05:01:21.810Z,81.45
2018-07-16T05:02:21.767Z,81.06
2018-07-16T05:03:21.836Z,80.77
2018-07-16T05:04:21.685Z,80.19
2018-07-16T05:05:21.655Z,80.38
2018-07-16T05:06:21.583Z,81.54
2018-07-16T05:07:21.542Z,80.04
2018-07-16T05:08:21.500Z,79.23
2018-07-16T05:09:21.450Z,78.94
2018-07-16T05:10:21.449Z,79.13
2018-07-16T05:11:21.360Z,79.27
2018-07-16T05:12:21.324Z,78.79
2018-07-16T05:13:21.275Z,78.98
2018-07-16T05:14:21.227Z,78.31
2018-07-16T05:15:21.199Z,78.98
2018-07-16T05:16:21.135Z,78.79
2018-07-16T05:17:21.087Z,77.92
2018-07-16T05:18:21.156Z,77.63
2018-07-16T05:19:20.999Z,77.92
2018-07-16T05:20:20.991Z,78.50
2018-07-16T05:21:20.906Z,78.40
2018-07-16T05:22:20.863Z,77.19
2018-07-16T05:23:20.822Z,77.00
2018-07-16T05:24:20.777Z,77.58
2018-07-16T05:25:20.771Z,76.13
2018-07-16T05:26:20.693Z,76.23
2018-07-16T05:27:20.642Z,74.62
2018-07-16T05:28:20.601Z,74.52
2018-07-16T05:29:20.550Z,73.47
2018-07-16T05:30:20.550Z,74.05
2018-07-16T05:31:20.528Z,75.78
2018-07-16T05:32:20.519Z,75.01
2018-07-16T05:33:20.394Z,74.62
2018-07-16T05:34:20.325Z,73.57
2018-07-16T05:35:20.318Z,73.18
2018-07-16T05:36:20.248Z,72.79
2018-07-16T05:37:20.201Z,72.12
2018-07-16T05:38:20.261Z,72.12
2018-07-16T05:39:20.101Z,72.60
2018-07-16T05:40:20.090Z,72.69
2018-07-16T05:41:20.025Z,72.12
2018-07-16T05:42:19.972Z,72.79
2018-07-16T05:43:19.923Z,72.69
2018-07-16T05:44:19.878Z,72.02
2018-07-16T05:45:19.901Z,72.21
2018-07-16T05:46:19.800Z,72.89
2018-07-16T05:47:19.752Z,72.02
2018-07-16T05:48:19.702Z,72.60
2018-07-16T05:49:19.662Z,72.99
2018-07-16T05:50:19.624Z,72.41
2018-07-16T05:51:19.594Z,72.50
2018-07-16T05:52:19.530Z,73.08
2018-07-16T05:53:19.487Z,72.60
2018-07-16T05:54:19.447Z,71.54
2018-07-16T05:55:19.387Z,71.73
2018-07-16T05:56:19.372Z,72.25
2018-07-16T05:57:19.303Z,71.19
2018-07-16T05:58:19.287Z,70.51
2018-07-16T05:59:19.208Z,71.58
2018-07-16T06:00:19.171Z,71.48
2018-07-16T06:01:19.155Z,71.58
2018-07-16T06:02:19.097Z,70.03
2018-07-16T06:03:19.037Z,70.51
2018-07-16T06:04:19.005Z,71.09
2018-07-16T06:05:18.964Z,70.70
2018-07-16T06:06:18.948Z,70.32
2018-07-16T06:07:18.877Z,70.03
2018-07-16T06:08:18.810Z,71.38
2018-07-16T06:09:18.766Z,71.96
2018-07-16T06:10:18.724Z,72.25
2018-07-16T06:11:18.707Z,71.96
2018-07-16T06:12:18.634Z,73.15
2018-07-16T06:13:18.589Z,70.94
2018-07-16T06:14:18.552Z,70.45
2018-07-16T06:15:18.498Z,70.36
2018-07-16T06:16:18.480Z,69.97
2018-07-16T06:17:18.422Z,68.62
2018-07-16T06:18:18.363Z,68.33
2018-07-16T06:19:18.318Z,68.81
2018-07-16T06:20:18.275Z,67.65
2018-07-16T06:21:18.258Z,69.32
2018-07-16T06:22:18.189Z,71.06
2018-07-16T06:23:18.145Z,68.75
2018-07-16T06:24:18.104Z,68.94
2018-07-16T06:25:18.059Z,68.65
2018-07-16T06:26:18.035Z,70.10
2018-07-16T06:27:17.969Z,68.36
2018-07-16T06:28:17.924Z,67.78
2018-07-16T06:29:17.880Z,67.01
2018-07-16T06:30:17.833Z,66.63
2018-07-16T06:31:17.817Z,66.17
2018-07-16T06:32:17.755Z,65.88
2018-07-16T06:33:17.703Z,65.98
2018-07-16T06:34:17.655Z,65.78
2018-07-16T06:35:17.617Z,65.50
2018-07-16T06:36:17.594Z,65.11
2018-07-16T06:37:17.529Z,66.56
2018-07-16T06:38:17.485Z,66.56
2018-07-16T06:39:17.445Z,65.50
2018-07-16T06:40:17.491Z,66.94
2018-07-16T06:41:17.566Z,65.78
2018-07-16T06:42:17.313Z,64.56
2018-07-16T06:43:17.265Z,64.47
2018-07-16T06:44:17.224Z,64.92
2018-07-16T06:45:17.179Z,65.20
2018-07-16T06:46:17.157Z,65.98
2018-07-16T06:47:17.090Z,66.66
2018-07-16T06:48:17.051Z,65.98
2018-07-16T06:49:17.001Z,66.46
2018-07-16T06:50:16.966Z,65.78
2018-07-16T06:51:16.942Z,66.78
2018-07-16T06:52:16.875Z,66.01
2018-07-16T06:53:16.831Z,65.24
2018-07-16T06:54:16.784Z,65.14
2018-07-16T06:55:16.819Z,64.85
2018-07-16T06:56:16.722Z,65.78
2018-07-16T06:57:16.651Z,65.59
2018-07-16T06:58:16.617Z,66.36
2018-07-16T06:59:16.568Z,66.40
2018-07-16T07:00:16.530Z,65.59
2018-07-16T07:01:16.505Z,64.76
2018-07-16T07:02:16.468Z,64.95
2018-07-16T07:03:16.402Z,66.40
2018-07-16T07:04:16.354Z,66.50
2018-07-16T07:05:16.311Z,66.40
2018-07-16T07:06:16.295Z,65.43
2018-07-16T07:07:16.221Z,64.56
2018-07-16T07:08:16.180Z,65.43
2018-07-16T07:09:16.138Z,65.27
2018-07-16T07:10:16.091Z,63.50
2018-07-16T07:11:16.075Z,64.59
2018-07-16T07:12:16.003Z,65.47
2018-07-16T07:13:15.959Z,63.63
2018-07-16T07:14:15.921Z,63.82
2018-07-16T07:15:15.874Z,64.34
2018-07-16T07:16:15.861Z,64.34
2018-07-16T07:17:15.792Z,62.69
2018-07-16T07:18:15.759Z,65.92
2018-07-16T07:19:15.707Z,61.08
2018-07-16T07:20:15.660Z,60.11
2018-07-16T07:21:15.618Z,61.24
2018-07-16T07:22:15.596Z,62.01
2018-07-16T07:23:15.529Z,61.72
2018-07-16T07:24:15.492Z,61.15
2018-07-16T07:25:15.448Z,62.11
2018-07-16T07:26:15.404Z,62.92
2018-07-16T07:27:15.383Z,60.69
2018-07-16T07:28:15.312Z,60.50
2018-07-16T07:29:15.273Z,61.18
2018-07-16T07:30:15.236Z,61.59
2018-07-16T07:31:15.185Z,61.11
2018-07-16T07:32:15.169Z,61.11
2018-07-16T07:33:15.101Z,60.78
2018-07-16T07:34:15.061Z,59.82
2018-07-16T07:35:15.069Z,60.69
2018-07-16T07:36:14.987Z,61.85
2018-07-16T07:37:14.972Z,62.34
2018-07-16T07:38:14.891Z,62.34
2018-07-16T07:39:14.848Z,63.98
2018-07-16T07:40:14.809Z,62.24
2018-07-16T07:41:14.760Z,62.04
2018-07-16T07:42:14.743Z,61.85
2018-07-16T07:43:14.674Z,63.92
2018-07-16T07:44:14.634Z,62.37
2018-07-16T07:45:14.599Z,63.24
2018-07-16T07:46:14.547Z,60.46
2018-07-16T07:47:14.533Z,60.36
2018-07-16T07:48:14.461Z,58.52
2018-07-16T07:49:14.421Z,58.33
2018-07-16T07:50:14.380Z,58.33
2018-07-16T07:51:14.333Z,58.04
2018-07-16T07:52:14.316Z,58.65
2018-07-16T07:53:14.253Z,58.42
2018-07-16T07:54:14.300Z,59.00
2018-07-16T07:55:14.676Z,61.14
2018-07-16T07:56:14.124Z,58.04
2018-07-16T07:57:14.106Z,59.59
2018-07-16T07:58:14.042Z,58.94
2018-07-16T07:59:13.995Z,58.04
2018-07-16T08:00:13.962Z,57.65
2018-07-16T08:01:13.912Z,58.42
2018-07-16T08:02:13.894Z,59.30
2018-07-16T08:03:13.853Z,60.94
2018-07-16T08:04:13.791Z,60.39
2018-07-16T08:05:13.750Z,57.09
2018-07-16T08:06:13.703Z,61.46
2018-07-16T08:07:13.688Z,62.20
2018-07-16T08:08:13.623Z,61.62
2018-07-16T08:09:13.578Z,62.10
2018-07-16T08:10:13.539Z,62.10
2018-07-16T08:11:13.491Z,61.82
2018-07-16T08:12:13.478Z,64.17
2018-07-16T08:13:13.412Z,62.13
2018-07-16T08:14:13.367Z,62.43
2018-07-16T08:15:13.327Z,61.94
2018-07-16T08:16:13.281Z,60.52
2018-07-16T08:17:13.269Z,61.19
2018-07-16T08:18:13.208Z,60.71
2018-07-16T08:19:13.162Z,58.94
2018-07-16T08:20:13.118Z,60.10
2018-07-16T08:21:13.078Z,58.94
2018-07-16T08:22:13.058Z,57.58
2018-07-16T08:23:12.992Z,59.23
2018-07-16T08:24:12.947Z,59.13
2018-07-16T08:25:12.910Z,59.42
2018-07-16T08:26:12.869Z,60.49
2018-07-16T08:27:12.848Z,59.91
2018-07-16T08:28:12.807Z,59.97
2018-07-16T08:29:12.740Z,59.61
2018-07-16T08:30:12.708Z,59.91
2018-07-16T08:31:12.658Z,59.91
2018-07-16T08:32:12.639Z,60.00
2018-07-16T08:33:12.571Z,60.23
2018-07-16T08:34:12.535Z,58.97
2018-07-16T08:35:12.495Z,59.26
2018-07-16T08:36:12.452Z,60.00
2018-07-16T08:37:12.438Z,59.71
2018-07-16T08:38:12.365Z,61.19
2018-07-16T08:39:12.387Z,61.68
2018-07-16T08:40:12.280Z,59.84
2018-07-16T08:41:12.239Z,60.42
2018-07-16T08:42:12.226Z,61.49
2018-07-16T08:43:12.195Z,62.46
2018-07-16T08:44:12.113Z,60.91
2018-07-16T08:45:12.073Z,59.28
2018-07-16T08:46:12.068Z,58.70
2018-07-16T08:47:11.993Z,59.22
2018-07-16T08:48:11.972Z,62.71
2018-07-16T08:49:11.908Z,57.37
2018-07-16T08:50:11.868Z,57.18
2018-07-16T08:51:11.822Z,57.89
2018-07-16T08:52:11.783Z,58.57
2018-07-16T08:53:11.769Z,58.67
2018-07-16T08:54:11.701Z,59.34
2018-07-16T08:55:11.668Z,58.28
2018-07-16T08:56:11.619Z,57.89
2018-07-16T08:57:11.576Z,57.21
2018-07-16T08:58:11.568Z,57.31
2018-07-16T08:59:11.512Z,57.89
2018-07-16T09:00:11.460Z,54.10
2018-07-16T09:01:11.414Z,53.97
2018-07-16T09:02:11.371Z,54.88
2018-07-16T09:03:11.365Z,55.07
2018-07-16T09:04:11.338Z,57.60
2018-07-16T09:05:11.277Z,57.28
2018-07-16T09:06:11.210Z,58.08
2018-07-16T09:07:11.181Z,57.40
2018-07-16T09:08:11.151Z,57.86
2018-07-16T09:09:11.086Z,56.89
2018-07-16T09:10:11.045Z,54.85
2018-07-16T09:11:11.014Z,55.33
2018-07-16T09:12:10.962Z,56.89
2018-07-16T09:13:10.993Z,58.44
2018-07-16T09:14:10.881Z,59.05
2018-07-16T09:15:10.840Z,56.14
2018-07-16T09:16:10.803Z,55.85
2018-07-16T09:17:10.758Z,57.11
2018-07-16T09:18:10.742Z,57.60
2018-07-16T09:19:10.695Z,54.68
2018-07-16T09:20:10.640Z,52.94
2018-07-16T09:21:10.599Z,53.54
2018-07-16T09:22:10.570Z,53.25
2018-07-16T09:23:10.538Z,52.96
2018-07-16T09:24:10.486Z,51.31
2018-07-16T09:25:10.436Z,50.24
2018-07-16T09:26:10.395Z,51.21
2018-07-16T09:27:10.352Z,51.21
2018-07-16T09:28:10.336Z,51.48
2018-07-16T09:29:10.275Z,52.35
2018-07-16T09:30:10.232Z,52.25
2018-07-16T09:31:10.190Z,52.81
2018-07-16T09:32:10.912Z,53.59
2018-07-16T09:33:10.136Z,55.85
2018-07-16T09:34:10.071Z,53.10
2018-07-16T09:35:10.029Z,53.03
2018-07-16T09:36:09.989Z,53.42
2018-07-16T09:37:09.947Z,53.52
2018-07-16T09:38:09.934Z,52.96
2018-07-16T09:39:09.914Z,54.68
2018-07-16T09:40:09.828Z,54.58
2018-07-16T09:41:09.786Z,52.35
2018-07-16T09:42:09.745Z,53.61
2018-07-16T09:43:09.734Z,51.87
2018-07-16T09:44:09.677Z,51.57
2018-07-16T09:45:09.630Z,51.06
2018-07-16T09:46:09.580Z,52.25
2018-07-16T09:47:09.543Z,52.15
2018-07-16T09:48:09.535Z,52.94
2018-07-16T09:49:09.465Z,52.57
2018-07-16T09:50:09.422Z,51.31
2018-07-16T09:51:09.381Z,51.01
2018-07-16T09:52:09.340Z,50.34
2018-07-16T09:53:09.322Z,51.11
2018-07-16T09:54:09.259Z,50.75
2018-07-16T09:55:09.219Z,49.58
2018-07-16T09:56:09.237Z,49.66
2018-07-16T09:57:09.138Z,51.43
2018-07-16T09:58:09.129Z,52.40
2018-07-16T09:59:09.058Z,51.23
2018-07-16T10:00:09.025Z,49.46
2018-07-16T10:01:08.975Z,49.17
2018-07-16T10:02:08.934Z,50.02
2018-07-16T10:03:08.919Z,50.12
2018-07-16T10:04:08.858Z,50.60
2018-07-16T10:05:08.827Z,54.13
2018-07-16T10:06:08.776Z,57.23
2018-07-16T10:07:08.740Z,55.78
2018-07-16T10:08:08.720Z,53.74
2018-07-16T10:09:08.652Z,53.45
2018-07-16T10:10:08.614Z,52.09
2018-07-16T10:11:08.574Z,53.18
2018-07-16T10:12:08.531Z,52.59
2018-07-16T10:13:08.545Z,52.40
2018-07-16T10:14:08.450Z,50.07
2018-07-16T10:15:08.414Z,49.97
2018-07-16T10:16:08.370Z,49.78
2018-07-16T10:17:08.333Z,48.51
2018-07-16T10:18:08.292Z,49.00
2018-07-16T10:19:08.277Z,49.58
2018-07-16T10:20:08.277Z,50.16
2018-07-16T10:21:08.171Z,50.09
2018-07-16T10:22:08.131Z,50.68
2018-07-16T10:23:08.093Z,50.19
2018-07-16T10:24:08.071Z,48.93
2018-07-16T10:25:08.012Z,48.51
2018-07-16T10:26:07.971Z,48.22
2018-07-16T10:27:07.937Z,48.20
2018-07-16T10:28:07.889Z,48.58
2018-07-16T10:29:14.975Z,49.66
2018-07-16T10:30:07.812Z,49.37
2018-07-16T10:31:07.771Z,50.14
2018-07-16T10:32:07.739Z,49.95
2018-07-16T10:33:07.694Z,48.58
2018-07-16T10:34:07.678Z,49.49
2018-07-16T10:35:07.618Z,50.16
2018-07-16T10:36:07.571Z,49.58
2018-07-16T10:37:07.537Z,50.16
2018-07-16T10:38:07.486Z,49.29
2018-07-16T10:39:07.479Z,48.73
2018-07-16T10:40:07.411Z,51.94
2018-07-16T10:41:07.368Z,49.99
2018-07-16T10:42:07.332Z,47.66
2018-07-16T10:43:07.290Z,48.25
2018-07-16T10:44:07.278Z,50.38
2018-07-16T10:45:07.211Z,49.41
2018-07-16T10:46:07.171Z,50.87
2018-07-16T10:47:07.129Z,50.48
2018-07-16T10:48:07.093Z,51.17
2018-07-16T10:49:07.072Z,49.80
2018-07-16T10:50:07.014Z,48.54
2018-07-16T10:51:06.969Z,47.64
2018-07-16T10:52:06.932Z,47.64
2018-07-16T10:53:06.895Z,47.42
2018-07-16T10:54:06.877Z,49.58
2018-07-16T10:55:06.829Z,47.93
2018-07-16T10:56:06.775Z,49.58
2018-07-16T10:57:06.732Z,50.46
2018-07-16T10:58:06.691Z,50.56
2018-07-16T10:59:06.679Z,49.49
2018-07-16T11:00:06.612Z,48.63
2018-07-16T11:01:07.225Z,50.36
2018-07-16T11:02:06.534Z,50.56
2018-07-16T11:03:06.573Z,50.26
2018-07-16T11:04:06.480Z,48.61
2018-07-16T11:05:06.417Z,48.61
2018-07-16T11:06:06.376Z,50.68
2018-07-16T11:07:06.338Z,51.65
2018-07-16T11:08:06.297Z,51.65
2018-07-16T11:09:06.279Z,53.50
2018-07-16T11:10:06.219Z,49.61
2018-07-16T11:11:06.182Z,49.44
2018-07-16T11:12:06.137Z,49.32
2018-07-16T11:13:06.096Z,47.37
2018-07-16T11:14:06.079Z,49.02
2018-07-16T11:15:06.035Z,51.75
2018-07-16T11:16:05.980Z,51.26
2018-07-16T11:17:05.940Z,51.75
2018-07-16T11:18:05.904Z,50.97
2018-07-16T11:19:05.883Z,49.92
2018-07-16T11:20:05.820Z,50.12
2018-07-16T11:21:05.782Z,51.09
2018-07-16T11:22:05.742Z,48.93
2018-07-16T11:23:05.706Z,50.29
2018-07-16T11:24:05.689Z,46.86
2018-07-16T11:25:05.625Z,46.77
2018-07-16T11:26:05.584Z,45.50
2018-07-16T11:27:05.545Z,47.74
2018-07-16T11:28:05.511Z,48.90
2018-07-16T11:29:05.489Z,48.90
2018-07-16T11:30:05.423Z,47.83
2018-07-16T11:31:05.385Z,47.74
2018-07-16T11:32:05.346Z,46.86
2018-07-16T11:33:05.313Z,47.64
2018-07-16T11:34:05.306Z,46.86
2018-07-16T11:35:05.227Z,47.44
2018-07-16T11:36:05.185Z,49.49
2018-07-16T11:37:05.147Z,49.51
2018-07-16T11:38:05.105Z,50.09
2018-07-16T11:39:05.093Z,50.29
2018-07-16T11:40:05.036Z,49.71
2018-07-16T11:41:04.990Z,49.02
2018-07-16T11:42:04.947Z,46.40
2018-07-16T11:43:04.909Z,46.47
2018-07-16T11:44:04.907Z,46.18
2018-07-16T11:45:04.827Z,49.58
2018-07-16T11:46:04.836Z,46.94
2018-07-16T11:47:04.745Z,46.74
2018-07-16T11:48:04.707Z,48.85
2018-07-16T11:49:04.665Z,50.89
2018-07-16T11:50:04.654Z,50.02
2018-07-16T11:51:04.590Z,47.98
2018-07-16T11:52:04.610Z,51.38
2018-07-16T11:53:04.507Z,52.25
2018-07-16T11:54:04.468Z,51.79
2018-07-16T11:55:04.450Z,49.85
2018-07-16T11:56:04.381Z,51.21
2018-07-16T11:57:04.346Z,50.24
2018-07-16T11:58:04.312Z,49.49
2018-07-16T11:59:04.336Z,47.44
2018-07-16T12:00:04.244Z,47.74
2018-07-16T12:01:04.185Z,47.93
2018-07-16T12:02:04.141Z,46.67
2018-07-16T12:03:04.100Z,46.57
2018-07-16T12:04:04.063Z,46.28
2018-07-16T12:05:04.096Z,46.47
2018-07-16T12:06:03.984Z,45.98
2018-07-16T12:07:03.940Z,45.31
2018-07-16T12:08:03.903Z,46.77
2018-07-16T12:09:03.862Z,47.93
2018-07-16T12:10:03.844Z,45.79
2018-07-16T12:11:03.778Z,45.32
2018-07-16T12:12:03.739Z,46.69
2018-07-16T12:13:03.702Z,46.88
2018-07-16T12:14:03.659Z,49.90
2018-07-16T12:15:03.642Z,49.90
2018-07-16T12:16:03.579Z,48.05
2018-07-16T12:17:03.543Z,47.64
2018-07-16T12:18:03.497Z,46.47
2018-07-16T12:19:03.458Z,46.08
2018-07-16T12:20:03.442Z,48.61
2018-07-16T12:21:03.377Z,49.58
2018-07-16T12:22:03.340Z,49.29
2018-07-16T12:23:03.295Z,49.29
2018-07-16T12:24:03.255Z,50.36
2018-07-16T12:25:03.246Z,49.49
2018-07-16T12:26:03.189Z,48.03
2018-07-16T12:27:03.134Z,46.08
2018-07-16T12:28:03.093Z,45.31
2018-07-16T12:29:03.056Z,45.11
2018-07-16T12:30:03.033Z,46.86
2018-07-16T12:31:02.977Z,46.47
2018-07-16T12:32:02.936Z,46.18
2018-07-16T12:33:02.893Z,47.15
2018-07-16T12:34:02.852Z,45.32
2018-07-16T12:35:02.831Z,44.55
2018-07-16T12:36:02.772Z,44.94
2018-07-16T12:37:02.734Z,45.04
2018-07-16T12:38:02.691Z,46.11
2018-07-16T12:39:02.652Z,45.04
2018-07-16T12:40:02.629Z,44.06
2018-07-16T12:41:02.570Z,43.96
2018-07-16T12:42:02.530Z,44.24
2018-07-16T12:43:02.488Z,44.72
2018-07-16T12:44:02.450Z,46.57
2018-07-16T12:45:02.432Z,48.05
2018-07-16T12:46:02.369Z,46.69
2018-07-16T12:47:02.433Z,48.34
2018-07-16T12:48:02.292Z,47.17
2018-07-16T12:49:02.264Z,47.37
2018-07-16T12:50:02.231Z,45.62
2018-07-16T12:51:02.168Z,45.42
2018-07-16T12:52:02.128Z,45.23